createdAt,value
2018-03-11T00:00:28.174Z,9.78
2018-03-11T00:01:28.173Z,9.75
2018-03-11T00:02:28.172Z,9.76
2018-03-11T00:03:28.172Z,9.82
2018-03-11T00:04:28.172Z,9.76
2018-03-11T00:05:28.170Z,9.81
2018-03-11T00:06:28.167Z,9.82
2018-03-11T00:07:28.165Z,9.85
2018-03-11T00:08:28.170Z,9.79
2018-03-11T00:09:28.166Z,9.83
2018-03-11T00:10:28.167Z,9.85
2018-03-11T00:11:28.164Z,9.85
2018-03-11T00:12:28.162Z,9.85
2018-03-11T00:13:28.163Z,9.86
2018-03-11T00:14:28.163Z,9.85
2018-03-11T00:15:28.160Z,9.85
2018-03-11T00:16:28.158Z,9.85
2018-03-11T00:17:28.160Z,9.78
2018-03-11T00:18:28.156Z,9.89
2018-03-11T00:19:28.156Z,9.86
2018-03-11T00:20:28.160Z,9.79
2018-03-11T00:21:28.162Z,9.81
2018-03-11T00:22:28.157Z,9.81
2018-03-11T00:23:28.151Z,9.78
2018-03-11T00:24:28.151Z,9.70
2018-03-11T00:25:28.152Z,9.71
2018-03-11T00:26:28.151Z,9.73
2018-03-11T00:27:28.147Z,9.79
2018-03-11T00:28:28.149Z,9.73
2018-03-11T00:29:28.147Z,9.67
2018-03-11T00:30:28.146Z,9.66
2018-03-11T00:31:28.148Z,9.82
2018-03-11T00:32:28.148Z,9.73
2018-03-11T00:33:28.144Z,9.76
2018-03-11T00:34:28.145Z,9.83
2018-03-11T00:35:28.141Z,9.71
2018-03-11T00:36:28.144Z,9.73
2018-03-11T00:37:28.142Z,9.70
2018-03-11T00:38:28.142Z,9.75
2018-03-11T00:39:28.139Z,9.73
2018-03-11T00:40:28.138Z,9.75
2018-03-11T00:41:28.138Z,9.75
2018-03-11T00:42:28.140Z,9.82
2018-03-11T00:43:28.134Z,9.83
2018-03-11T00:44:28.133Z,9.81
2018-03-11T00:45:28.138Z,9.76
2018-03-11T00:46:28.134Z,9.75
2018-03-11T00:47:28.133Z,9.75
2018-03-11T00:48:28.132Z,9.70
2018-03-11T00:49:28.132Z,9.71
2018-03-11T00:50:28.132Z,9.68
2018-03-11T00:51:28.129Z,9.73
2018-03-11T00:52:28.130Z,9.73
2018-03-11T00:53:28.137Z,9.73
2018-03-11T00:54:28.128Z,9.78
2018-03-11T00:55:28.125Z,9.73
2018-03-11T00:56:28.125Z,9.64
2018-03-11T00:57:28.124Z,9.73
2018-03-11T00:58:28.125Z,9.85
2018-03-11T00:59:28.121Z,9.85
2018-03-11T01:00:28.122Z,9.85
2018-03-11T01:01:28.122Z,9.88
2018-03-11T01:02:28.120Z,9.89
2018-03-11T01:03:28.118Z,9.88
2018-03-11T01:04:28.118Z,9.93
2018-03-11T01:05:28.119Z,9.86
2018-03-11T01:06:28.116Z,9.86
2018-03-11T01:07:28.116Z,9.86
2018-03-11T01:08:28.116Z,9.81
2018-03-11T01:09:28.116Z,9.91
2018-03-11T01:10:28.118Z,9.82
2018-03-11T01:11:28.114Z,9.83
2018-03-11T01:12:28.111Z,9.81
2018-03-11T01:13:28.113Z,9.71
2018-03-11T01:14:28.111Z,9.78
2018-03-11T01:15:28.108Z,9.75
2018-03-11T01:16:28.109Z,9.83
2018-03-11T01:17:28.107Z,9.71
2018-03-11T01:18:28.111Z,9.68
2018-03-11T01:19:28.109Z,9.79
2018-03-11T01:20:28.107Z,9.79
2018-03-11T01:21:28.105Z,9.94
2018-03-11T01:22:28.105Z,10.01
2018-03-11T01:23:28.102Z,9.96
2018-03-11T01:24:28.102Z,9.96
2018-03-11T01:25:28.101Z,9.93
2018-03-11T01:26:28.101Z,9.94
2018-03-11T01:27:28.098Z,9.99
2018-03-11T01:28:28.097Z,9.97
2018-03-11T01:29:28.098Z,10.01
2018-03-11T01:30:28.096Z,9.94
2018-03-11T01:31:28.093Z,10.00
2018-03-11T01:32:28.094Z,9.97
2018-03-11T01:33:28.104Z,10.00
2018-03-11T01:34:28.093Z,9.97
2018-03-11T01:35:28.092Z,9.88
2018-03-11T01:36:28.090Z,9.94
2018-03-11T01:37:28.092Z,9.99
2018-03-11T01:38:28.091Z,9.88
2018-03-11T01:39:28.088Z,10.03
2018-03-11T01:40:28.086Z,9.97
2018-03-11T01:41:28.089Z,9.89
2018-03-11T01:42:28.085Z,10.03
2018-03-11T01:43:28.088Z,10.04
2018-03-11T01:44:28.085Z,10.09
2018-03-11T01:45:28.082Z,9.97
2018-03-11T01:46:28.083Z,9.99
2018-03-11T01:47:28.082Z,10.01
2018-03-11T01:48:28.082Z,9.96
2018-03-11T01:49:28.079Z,10.04
2018-03-11T01:50:28.082Z,9.94
2018-03-11T01:51:28.077Z,9.99
2018-03-11T01:52:28.075Z,9.97
2018-03-11T01:53:28.075Z,9.96
2018-03-11T01:54:28.075Z,10.06
2018-03-11T01:55:28.074Z,9.99
2018-03-11T01:56:28.072Z,9.97
2018-03-11T01:57:28.071Z,9.99
2018-03-11T01:58:28.120Z,9.94
2018-03-11T01:59:28.073Z,9.96
2018-03-11T02:00:28.069Z,9.99
2018-03-11T02:01:28.067Z,9.99
2018-03-11T02:02:28.066Z,9.86
2018-03-11T02:03:28.064Z,9.88
2018-03-11T02:04:28.079Z,9.86
2018-03-11T02:05:28.064Z,9.81
2018-03-11T02:06:28.063Z,9.86
2018-03-11T02:07:28.061Z,9.85
2018-03-11T02:08:28.061Z,9.82
2018-03-11T02:09:28.061Z,9.89
2018-03-11T02:10:28.059Z,10.01
2018-03-11T02:11:28.055Z,9.96
2018-03-11T02:12:28.059Z,9.94
2018-03-11T02:13:28.056Z,9.94
2018-03-11T02:14:28.054Z,9.99
2018-03-11T02:15:28.052Z,9.91
2018-03-11T02:16:28.051Z,9.96
2018-03-11T02:17:28.050Z,9.79
2018-03-11T02:18:28.049Z,9.83
2018-03-11T02:19:28.047Z,9.88
2018-03-11T02:20:28.045Z,9.85
2018-03-11T02:21:28.045Z,9.82
2018-03-11T02:22:28.046Z,9.79
2018-03-11T02:23:28.042Z,9.86
2018-03-11T02:24:28.042Z,9.86
2018-03-11T02:25:28.044Z,9.81
2018-03-11T02:26:28.040Z,9.86
2018-03-11T02:27:28.038Z,9.78
2018-03-11T02:28:28.037Z,9.76
2018-03-11T02:29:28.036Z,9.71
2018-03-11T02:30:28.035Z,9.68
2018-03-11T02:31:28.034Z,9.63
2018-03-11T02:32:28.033Z,9.63
2018-03-11T02:33:28.032Z,9.71
2018-03-11T02:34:28.033Z,9.66
2018-03-11T02:35:28.030Z,9.63
2018-03-11T02:36:28.032Z,9.66
2018-03-11T02:37:28.028Z,9.82
2018-03-11T02:38:28.028Z,9.81
2018-03-11T02:39:28.029Z,9.86
2018-03-11T02:40:28.023Z,9.96
2018-03-11T02:41:28.024Z,9.89
2018-03-11T02:42:28.022Z,9.86
2018-03-11T02:43:28.043Z,9.91
2018-03-11T02:44:28.019Z,10.00
2018-03-11T02:45:28.019Z,9.96
2018-03-11T02:46:28.022Z,9.96
2018-03-11T02:47:28.023Z,9.91
2018-03-11T02:48:28.016Z,9.94
2018-03-11T02:49:28.016Z,9.86
2018-03-11T02:50:28.012Z,9.79
2018-03-11T02:51:28.011Z,9.81
2018-03-11T02:52:28.013Z,9.82
2018-03-11T02:53:28.009Z,9.94
2018-03-11T02:54:28.008Z,9.81
2018-03-11T02:55:28.009Z,9.82
2018-03-11T02:56:28.004Z,9.83
2018-03-11T02:57:28.005Z,9.85
2018-03-11T02:58:28.003Z,9.82
2018-03-11T02:59:28.002Z,9.82
2018-03-11T03:00:28.000Z,9.82
2018-03-11T03:01:27.999Z,9.76
2018-03-11T03:02:27.998Z,9.85
2018-03-11T03:03:27.994Z,9.78
2018-03-11T03:04:27.997Z,9.83
2018-03-11T03:05:27.996Z,9.68
2018-03-11T03:06:27.998Z,9.76
2018-03-11T03:07:27.990Z,9.75
2018-03-11T03:08:28.001Z,9.70
2018-03-11T03:09:27.990Z,9.73
2018-03-11T03:10:27.990Z,9.71
2018-03-11T03:11:27.992Z,9.70
2018-03-11T03:12:27.990Z,9.64
2018-03-11T03:13:27.987Z,9.71
2018-03-11T03:14:27.984Z,9.63
2018-03-11T03:15:27.982Z,9.60
2018-03-11T03:16:27.981Z,9.58
2018-03-11T03:17:27.979Z,9.57
2018-03-11T03:18:27.985Z,9.58
2018-03-11T03:19:27.977Z,9.52
2018-03-11T03:20:27.978Z,9.53
2018-03-11T03:21:27.972Z,9.60
2018-03-11T03:22:27.977Z,9.57
2018-03-11T03:23:27.970Z,9.57
2018-03-11T03:24:27.969Z,9.57
2018-03-11T03:25:27.970Z,9.57
2018-03-11T03:26:27.968Z,9.57
2018-03-11T03:27:27.966Z,9.53
2018-03-11T03:28:27.969Z,9.57
2018-03-11T03:29:27.964Z,9.42
2018-03-11T03:30:27.965Z,9.46
2018-03-11T03:31:27.963Z,9.24
2018-03-11T03:32:27.959Z,9.34
2018-03-11T03:33:27.960Z,9.21
2018-03-11T03:34:27.961Z,9.18
2018-03-11T03:35:27.956Z,9.24
2018-03-11T03:36:27.955Z,9.21
2018-03-11T03:37:27.955Z,9.23
2018-03-11T03:38:28.001Z,9.13
2018-03-11T03:39:27.958Z,9.09
2018-03-11T03:40:27.951Z,9.10
2018-03-11T03:41:27.951Z,9.01
2018-03-11T03:42:27.951Z,8.93
2018-03-11T03:43:27.946Z,8.94
2018-03-11T03:44:27.948Z,8.93
2018-03-11T03:45:27.945Z,8.93
2018-03-11T03:46:27.946Z,8.97
2018-03-11T03:47:27.948Z,8.79
2018-03-11T03:48:27.942Z,8.79
2018-03-11T03:49:27.939Z,8.71
2018-03-11T03:50:27.939Z,8.66
2018-03-11T03:51:27.938Z,8.75
2018-03-11T03:52:27.935Z,8.76
2018-03-11T03:53:27.934Z,8.66
2018-03-11T03:54:27.934Z,8.54
2018-03-11T03:55:27.932Z,8.57
2018-03-11T03:56:27.935Z,8.48
2018-03-11T03:57:27.938Z,8.36
2018-03-11T03:58:27.933Z,8.26
2018-03-11T03:59:27.925Z,8.18
2018-03-11T04:00:27.940Z,8.15
2018-03-11T04:01:27.924Z,8.02
2018-03-11T04:02:27.923Z,8.00
2018-03-11T04:03:27.918Z,8.04
2018-03-11T04:04:27.944Z,7.94
2018-03-11T04:05:27.934Z,7.99
2018-03-11T04:06:27.922Z,7.87
2018-03-11T04:07:27.916Z,7.82
2018-03-11T04:08:27.913Z,7.84
2018-03-11T04:09:27.912Z,7.78
2018-03-11T04:10:27.914Z,7.79
2018-03-11T04:11:27.926Z,7.82
2018-03-11T04:12:27.927Z,7.77
2018-03-11T04:13:27.904Z,7.67
2018-03-11T04:14:27.904Z,7.69
2018-03-11T04:15:27.901Z,7.50
2018-03-11T04:16:27.899Z,7.56
2018-03-11T04:17:27.897Z,7.56
2018-03-11T04:18:27.894Z,7.58
2018-03-11T04:19:27.894Z,7.49
2018-03-11T04:20:27.893Z,7.49
2018-03-11T04:21:27.892Z,7.40
2018-03-11T04:22:27.909Z,7.40
2018-03-11T04:23:27.886Z,7.38
2018-03-11T04:24:27.883Z,7.37
2018-03-11T04:25:27.906Z,7.34
2018-03-11T04:26:27.881Z,7.26
2018-03-11T04:27:27.879Z,7.12
2018-03-11T04:28:27.881Z,7.16
2018-03-11T04:29:27.877Z,7.05
2018-03-11T04:30:27.891Z,7.05
2018-03-11T04:31:27.872Z,6.98
2018-03-11T04:32:27.869Z,6.95
2018-03-11T04:33:27.871Z,6.95
2018-03-11T04:34:27.865Z,7.04
2018-03-11T04:35:27.863Z,6.83
2018-03-11T04:36:27.861Z,6.83
2018-03-11T04:37:27.866Z,6.91
2018-03-11T04:38:27.860Z,6.97
2018-03-11T04:39:27.855Z,6.97
2018-03-11T04:40:27.852Z,7.04
2018-03-11T04:41:27.853Z,7.17
2018-03-11T04:42:27.856Z,7.34
2018-03-11T04:43:27.867Z,7.37
2018-03-11T04:44:27.856Z,7.38
2018-03-11T04:45:27.842Z,7.32
2018-03-11T04:46:27.840Z,7.26
2018-03-11T04:47:27.838Z,7.29
2018-03-11T04:48:27.836Z,7.23
2018-03-11T04:49:27.833Z,7.09
2018-03-11T04:50:27.831Z,7.15
2018-03-11T04:51:27.828Z,7.13
2018-03-11T04:52:27.831Z,7.17
2018-03-11T04:53:27.823Z,7.15
2018-03-11T04:54:27.833Z,7.17
2018-03-11T04:55:27.835Z,7.15
2018-03-11T04:56:27.831Z,7.17
2018-03-11T04:57:27.815Z,7.24
2018-03-11T04:58:27.813Z,7.32
2018-03-11T04:59:27.809Z,7.23
2018-03-11T05:00:27.808Z,7.27
2018-03-11T05:01:27.854Z,7.15
2018-03-11T05:02:27.804Z,7.19
2018-03-11T05:03:27.801Z,7.07
2018-03-11T05:04:27.802Z,7.01
2018-03-11T05:05:27.801Z,6.97
2018-03-11T05:06:27.801Z,6.99
2018-03-11T05:07:27.790Z,6.99
2018-03-11T05:08:27.790Z,7.05
2018-03-11T05:09:27.788Z,7.16
2018-03-11T05:10:27.790Z,7.15
2018-03-11T05:11:27.782Z,7.17
2018-03-11T05:12:27.781Z,7.12
2018-03-11T05:13:27.782Z,7.19
2018-03-11T05:14:27.778Z,7.27
2018-03-11T05:15:27.776Z,7.16
2018-03-11T05:16:27.771Z,7.29
2018-03-11T05:17:27.776Z,7.31
2018-03-11T05:18:27.775Z,7.38
2018-03-11T05:19:27.791Z,7.41
2018-03-11T05:20:27.764Z,7.55
2018-03-11T05:21:27.764Z,7.66
2018-03-11T05:22:27.762Z,7.75
2018-03-11T05:23:27.758Z,7.69
2018-03-11T05:24:27.756Z,7.69
2018-03-11T05:25:27.756Z,7.74
2018-03-11T05:26:27.749Z,7.63
2018-03-11T05:27:27.745Z,7.66
2018-03-11T05:28:27.747Z,7.81
2018-03-11T05:29:27.743Z,7.77
2018-03-11T05:30:27.742Z,7.82
2018-03-11T05:31:27.739Z,7.97
2018-03-11T05:32:27.744Z,8.00
2018-03-11T05:33:27.736Z,8.07
2018-03-11T05:34:27.734Z,8.14
2018-03-11T05:35:27.732Z,8.26
2018-03-11T05:36:27.749Z,8.42
2018-03-11T05:37:27.728Z,8.37
2018-03-11T05:38:27.726Z,8.40
2018-03-11T05:39:27.724Z,8.48
2018-03-11T05:40:27.723Z,8.48
2018-03-11T05:41:27.722Z,8.42
2018-03-11T05:42:27.719Z,8.36
2018-03-11T05:43:27.736Z,8.39
2018-03-11T05:44:27.754Z,8.39
2018-03-11T05:45:27.714Z,8.37
2018-03-11T05:46:27.711Z,8.35
2018-03-11T05:47:27.707Z,8.29
2018-03-11T05:48:27.708Z,8.22
2018-03-11T05:49:27.703Z,8.20
2018-03-11T05:50:27.702Z,8.15
2018-03-11T05:51:27.703Z,8.15
2018-03-11T05:52:27.718Z,8.21
2018-03-11T05:53:27.742Z,8.12
2018-03-11T05:54:27.698Z,8.15
2018-03-11T05:55:27.692Z,8.04
2018-03-11T05:56:27.692Z,8.04
2018-03-11T05:57:27.687Z,8.02
2018-03-11T05:58:27.687Z,8.00
2018-03-11T05:59:27.687Z,8.03
2018-03-11T06:00:27.691Z,8.04
2018-03-11T06:01:27.690Z,7.99
2018-03-11T06:02:27.680Z,8.04
2018-03-11T06:03:27.681Z,8.15
2018-03-11T06:04:27.676Z,8.12
2018-03-11T06:05:27.673Z,8.17
2018-03-11T06:06:27.673Z,8.14
2018-03-11T06:07:27.673Z,8.11
2018-03-11T06:08:27.667Z,7.99
2018-03-11T06:09:27.667Z,8.02
2018-03-11T06:10:27.664Z,8.10
2018-03-11T06:11:27.661Z,8.15
2018-03-11T06:12:27.658Z,8.11
2018-03-11T06:13:27.659Z,8.18
2018-03-11T06:14:27.657Z,8.20
2018-03-11T06:15:27.654Z,8.25
2018-03-11T06:16:27.652Z,8.21
2018-03-11T06:17:27.650Z,8.28
2018-03-11T06:18:27.651Z,8.42
2018-03-11T06:19:27.647Z,8.53
2018-03-11T06:20:27.669Z,8.72
2018-03-11T06:21:27.643Z,8.69
2018-03-11T06:22:27.644Z,8.81
2018-03-11T06:23:27.640Z,8.81
2018-03-11T06:24:27.650Z,8.84
2018-03-11T06:25:27.637Z,9.02
2018-03-11T06:26:27.669Z,9.21
2018-03-11T06:27:27.634Z,9.24
2018-03-11T06:28:27.643Z,9.34
2018-03-11T06:29:27.628Z,9.38
2018-03-11T06:30:27.635Z,9.40
2018-03-11T06:31:27.624Z,9.49
2018-03-11T06:32:27.635Z,9.61
2018-03-11T06:33:27.629Z,9.56
2018-03-11T06:34:27.624Z,9.67
2018-03-11T06:35:27.620Z,9.71
2018-03-11T06:36:27.618Z,9.78
2018-03-11T06:37:27.620Z,9.91
2018-03-11T06:38:27.614Z,9.86
2018-03-11T06:39:27.614Z,10.01
2018-03-11T06:40:27.612Z,10.10
2018-03-11T06:41:27.611Z,10.12
2018-03-11T06:42:27.613Z,10.09
2018-03-11T06:43:27.606Z,10.07
2018-03-11T06:44:27.609Z,10.19
2018-03-11T06:45:27.605Z,10.43
2018-03-11T06:46:27.604Z,11.10
2018-03-11T06:47:27.603Z,10.77
2018-03-11T06:48:27.601Z,10.56
2018-03-11T06:49:27.600Z,10.40
2018-03-11T06:50:27.599Z,10.34
2018-03-11T06:51:27.596Z,10.19
2018-03-11T06:52:27.601Z,10.18
2018-03-11T06:53:27.596Z,10.06
2018-03-11T06:54:27.598Z,9.94
2018-03-11T06:55:27.592Z,9.86
2018-03-11T06:56:27.592Z,9.73
2018-03-11T06:57:27.592Z,9.67
2018-03-11T06:58:27.591Z,9.64
2018-03-11T06:59:27.590Z,9.61
2018-03-11T07:00:27.591Z,10.76
2018-03-11T07:01:27.587Z,11.50
2018-03-11T07:02:27.588Z,12.44
2018-03-11T07:03:27.592Z,13.21
2018-03-11T07:04:27.597Z,14.07
2018-03-11T07:05:27.588Z,14.75
2018-03-11T07:06:27.586Z,14.86
2018-03-11T07:07:27.585Z,15.56
2018-03-11T07:08:27.586Z,15.93
2018-03-11T07:09:27.587Z,16.26
2018-03-11T07:10:27.588Z,16.55
2018-03-11T07:11:27.589Z,16.70
2018-03-11T07:12:27.598Z,16.86
2018-03-11T07:13:27.594Z,16.98
2018-03-11T07:14:27.597Z,16.98
2018-03-11T07:15:27.600Z,16.74
2018-03-11T07:16:27.603Z,16.96
2018-03-11T07:17:27.607Z,17.36
2018-03-11T07:18:27.610Z,17.53
2018-03-11T07:19:27.616Z,17.74
2018-03-11T07:20:27.618Z,17.64
2018-03-11T07:21:27.623Z,17.47
2018-03-11T07:22:27.628Z,17.47
2018-03-11T07:23:27.667Z,17.13
2018-03-11T07:24:27.641Z,17.36
2018-03-11T07:25:27.642Z,17.47
2018-03-11T07:26:27.649Z,17.50
2018-03-11T07:27:27.672Z,17.57
2018-03-11T07:28:27.658Z,17.35
2018-03-11T07:29:27.666Z,17.81
2018-03-11T07:30:27.672Z,17.88
2018-03-11T07:31:27.676Z,18.34
2018-03-11T07:32:27.696Z,18.47
2018-03-11T07:33:27.689Z,18.76
2018-03-11T07:34:27.696Z,18.77
2018-03-11T07:35:27.702Z,18.37
2018-03-11T07:36:27.708Z,18.10
2018-03-11T07:37:27.718Z,17.84
2018-03-11T07:38:27.722Z,17.76
2018-03-11T07:39:27.729Z,17.62
2018-03-11T07:40:27.737Z,17.64
2018-03-11T07:41:27.751Z,17.10
2018-03-11T07:42:27.753Z,16.96
2018-03-11T07:43:27.762Z,16.34
2018-03-11T07:44:27.769Z,16.26
2018-03-11T07:45:27.779Z,16.86
2018-03-11T07:46:27.802Z,16.83
2018-03-11T07:47:27.790Z,17.03
2018-03-11T07:48:27.797Z,17.64
2018-03-11T07:49:27.810Z,17.89
2018-03-11T07:50:27.813Z,18.29
2018-03-11T07:51:27.823Z,18.86
2018-03-11T07:52:27.833Z,19.14
2018-03-11T07:53:27.838Z,19.14
2018-03-11T07:54:28.008Z,19.06
2018-03-11T07:55:27.852Z,18.83
2018-03-11T07:56:27.863Z,18.57
2018-03-11T07:57:27.877Z,18.70
2018-03-11T07:58:27.881Z,19.02
2018-03-11T07:59:27.891Z,18.91
2018-03-11T08:00:27.897Z,19.02
2018-03-11T08:01:27.903Z,18.94
2018-03-11T08:02:27.916Z,19.21
2018-03-11T08:03:27.923Z,19.14
2018-03-11T08:04:27.933Z,19.21
2018-03-11T08:05:27.944Z,19.38
2018-03-11T08:06:27.950Z,19.17
2018-03-11T08:07:27.964Z,18.36
2018-03-11T08:08:27.972Z,18.19
2018-03-11T08:09:27.980Z,18.37
2018-03-11T08:10:27.992Z,18.33
2018-03-11T08:11:28.000Z,18.21
2018-03-11T08:12:28.011Z,18.25
2018-03-11T08:13:28.020Z,18.24
2018-03-11T08:14:28.066Z,17.36
2018-03-11T08:15:28.046Z,17.20
2018-03-11T08:16:28.052Z,17.22
2018-03-11T08:17:28.062Z,17.07
2018-03-11T08:18:28.074Z,16.98
2018-03-11T08:19:28.082Z,16.88
2018-03-11T08:20:28.096Z,16.75
2018-03-11T08:21:28.104Z,16.80
2018-03-11T08:22:28.118Z,16.85
2018-03-11T08:23:28.126Z,16.73
2018-03-11T08:24:28.143Z,16.50
2018-03-11T08:25:28.148Z,16.52
2018-03-11T08:26:28.408Z,16.65
2018-03-11T08:27:28.172Z,16.65
2018-03-11T08:28:28.182Z,16.83
2018-03-11T08:29:28.208Z,16.68
2018-03-11T08:30:28.204Z,16.73
2018-03-11T08:31:28.214Z,16.53
2018-03-11T08:32:28.225Z,16.38
2018-03-11T08:33:28.234Z,16.34
2018-03-11T08:34:28.250Z,16.44
2018-03-11T08:35:28.259Z,16.52
2018-03-11T08:36:28.270Z,16.62
2018-03-11T08:37:28.281Z,16.75
2018-03-11T08:38:28.294Z,16.55
2018-03-11T08:39:28.306Z,16.78
2018-03-11T08:40:28.316Z,16.78
2018-03-11T08:41:28.332Z,16.89
2018-03-11T08:42:28.338Z,16.75
2018-03-11T08:43:28.351Z,16.63
2018-03-11T08:44:28.359Z,16.78
2018-03-11T08:45:28.373Z,16.99
2018-03-11T08:46:28.386Z,16.86
2018-03-11T08:47:28.396Z,16.52
2018-03-11T08:48:28.407Z,16.68
2018-03-11T08:49:28.421Z,16.63
2018-03-11T08:50:28.435Z,16.60
2018-03-11T08:51:28.443Z,16.81
2018-03-11T08:52:28.462Z,16.96
2018-03-11T08:53:28.465Z,17.00
2018-03-11T08:54:28.478Z,17.29
2018-03-11T08:55:28.487Z,17.51
2018-03-11T08:56:28.498Z,17.44
2018-03-11T08:57:28.512Z,17.50
2018-03-11T08:58:28.523Z,17.71
2018-03-11T08:59:28.537Z,17.71
2018-03-11T09:00:28.550Z,17.79
2018-03-11T09:01:28.559Z,17.73
2018-03-11T09:02:28.569Z,17.44
2018-03-11T09:03:28.580Z,17.47
2018-03-11T09:04:28.592Z,17.47
2018-03-11T09:05:28.604Z,17.41
2018-03-11T09:06:28.625Z,17.35
2018-03-11T09:07:28.628Z,17.35
2018-03-11T09:08:28.642Z,17.50
2018-03-11T09:09:28.648Z,17.40
2018-03-11T09:10:28.921Z,17.29
2018-03-11T09:11:28.717Z,17.13
2018-03-11T09:12:28.947Z,17.04
2018-03-11T09:13:28.692Z,17.07
2018-03-11T09:14:28.700Z,17.22
2018-03-11T09:15:28.711Z,17.08
2018-03-11T09:16:28.721Z,17.11
2018-03-11T09:17:28.731Z,17.33
2018-03-11T09:18:28.739Z,17.25
2018-03-11T09:19:28.749Z,17.06
2018-03-11T09:20:28.760Z,16.92
2018-03-11T09:21:28.772Z,16.71
2018-03-11T09:22:28.788Z,16.59
2018-03-11T09:23:28.787Z,16.70
2018-03-11T09:24:28.800Z,16.73
2018-03-11T09:25:28.817Z,16.99
2018-03-11T09:26:28.814Z,17.41
2018-03-11T09:27:28.830Z,17.74
2018-03-11T09:28:28.833Z,17.57
2018-03-11T09:29:28.849Z,17.79
2018-03-11T09:30:28.852Z,17.94
2018-03-11T09:31:28.860Z,17.97
2018-03-11T09:32:28.870Z,18.09
2018-03-11T09:33:29.276Z,18.37
2018-03-11T09:34:28.908Z,18.33
2018-03-11T09:35:28.906Z,18.68
2018-03-11T09:36:28.914Z,18.37
2018-03-11T09:37:28.921Z,18.44
2018-03-11T09:38:28.931Z,18.44
2018-03-11T09:39:28.941Z,18.62
2018-03-11T09:40:28.953Z,18.59
2018-03-11T09:41:28.966Z,18.34
2018-03-11T09:42:28.982Z,18.39
2018-03-11T09:43:28.990Z,18.34
2018-03-11T09:44:29.001Z,18.42
2018-03-11T09:45:29.014Z,18.47
2018-03-11T09:46:29.040Z,18.29
2018-03-11T09:47:29.039Z,18.33
2018-03-11T09:48:29.056Z,18.50
2018-03-11T09:49:29.066Z,18.59
2018-03-11T09:50:29.082Z,18.59
2018-03-11T09:51:29.095Z,18.47
2018-03-11T09:52:29.131Z,18.54
2018-03-11T09:53:29.120Z,18.61
2018-03-11T09:54:29.145Z,18.87
2018-03-11T09:55:29.147Z,18.82
2018-03-11T09:56:29.163Z,19.02
2018-03-11T09:57:29.181Z,19.13
2018-03-11T09:58:29.194Z,19.29
2018-03-11T09:59:29.206Z,19.21
2018-03-11T10:00:29.222Z,19.15
2018-03-11T10:01:29.237Z,18.99
2018-03-11T10:02:29.253Z,18.72
2018-03-11T10:03:29.262Z,18.64
2018-03-11T10:04:29.279Z,18.62
2018-03-11T10:05:29.322Z,18.64
2018-03-11T10:06:29.327Z,18.59
2018-03-11T10:07:29.428Z,18.77
2018-03-11T10:08:29.337Z,18.77
2018-03-11T10:09:29.349Z,18.90
2018-03-11T10:10:29.362Z,19.01
2018-03-11T10:11:29.378Z,19.14
2018-03-11T10:12:29.392Z,19.36
2018-03-11T10:13:29.507Z,19.38
2018-03-11T10:14:29.419Z,19.17
2018-03-11T10:15:29.432Z,18.98
2018-03-11T10:16:29.448Z,18.86
2018-03-11T10:17:29.465Z,18.64
2018-03-11T10:18:29.474Z,18.57
2018-03-11T10:19:29.489Z,18.46
2018-03-11T10:20:29.504Z,18.55
2018-03-11T10:21:29.515Z,18.65
2018-03-11T10:22:29.537Z,18.67
2018-03-11T10:23:29.543Z,18.73
2018-03-11T10:24:29.556Z,18.87
2018-03-11T10:25:29.571Z,19.05
2018-03-11T10:26:29.578Z,19.20
2018-03-11T10:27:29.592Z,19.25
2018-03-11T10:28:29.603Z,19.24
2018-03-11T10:29:29.612Z,19.25
2018-03-11T10:30:29.626Z,19.17
2018-03-11T10:31:29.634Z,19.01
2018-03-11T10:32:29.649Z,18.68
2018-03-11T10:33:29.659Z,18.67
2018-03-11T10:34:29.665Z,18.58
2018-03-11T10:35:29.677Z,18.49
2018-03-11T10:36:29.685Z,18.70
2018-03-11T10:37:29.690Z,18.57
2018-03-11T10:38:29.705Z,18.72
2018-03-11T10:39:29.712Z,18.44
2018-03-11T10:40:29.718Z,18.43
2018-03-11T10:41:29.728Z,18.43
2018-03-11T10:42:29.736Z,18.54
2018-03-11T10:43:29.741Z,18.47
2018-03-11T10:44:29.798Z,18.65
2018-03-11T10:45:29.758Z,18.74
2018-03-11T10:46:29.767Z,18.72
2018-03-11T10:47:29.776Z,18.92
2018-03-11T10:48:29.782Z,19.21
2018-03-11T10:49:29.790Z,19.51
2018-03-11T10:50:29.796Z,19.68
2018-03-11T10:51:29.805Z,19.58
2018-03-11T10:52:29.812Z,19.70
2018-03-11T10:53:29.826Z,19.91
2018-03-11T10:54:29.854Z,19.86
2018-03-11T10:55:29.841Z,19.79
2018-03-11T10:56:29.843Z,19.93
2018-03-11T10:57:29.852Z,20.03
2018-03-11T10:58:29.859Z,20.13
2018-03-11T10:59:29.867Z,20.08
2018-03-11T11:00:29.873Z,20.00
2018-03-11T11:01:29.881Z,20.03
2018-03-11T11:02:29.887Z,19.86
2018-03-11T11:03:29.897Z,19.68
2018-03-11T11:04:29.908Z,19.06
2018-03-11T11:05:29.913Z,19.38
2018-03-11T11:06:29.919Z,19.32
2018-03-11T11:07:29.926Z,19.46
2018-03-11T11:08:29.932Z,19.42
2018-03-11T11:09:29.940Z,19.24
2018-03-11T11:10:29.956Z,18.84
2018-03-11T11:11:29.957Z,18.80
2018-03-11T11:12:29.960Z,18.43
2018-03-11T11:13:29.967Z,18.19
2018-03-11T11:14:29.977Z,17.81
2018-03-11T11:15:29.988Z,17.95
2018-03-11T11:16:29.989Z,17.81
2018-03-11T11:17:29.996Z,17.73
2018-03-11T11:18:30.004Z,17.66
2018-03-11T11:19:30.008Z,17.63
2018-03-11T11:20:30.018Z,17.73
2018-03-11T11:21:30.023Z,17.67
2018-03-11T11:22:30.034Z,17.71
2018-03-11T11:23:30.039Z,17.69
2018-03-11T11:24:30.042Z,17.51
2018-03-11T11:25:30.049Z,17.62
2018-03-11T11:26:30.056Z,17.57
2018-03-11T11:27:30.061Z,17.57
2018-03-11T11:28:30.077Z,17.51
2018-03-11T11:29:30.074Z,17.46
2018-03-11T11:30:30.082Z,17.48
2018-03-11T11:31:30.086Z,17.51
2018-03-11T11:32:30.092Z,17.59
2018-03-11T11:33:30.099Z,17.47
2018-03-11T11:34:30.121Z,17.41
2018-03-11T11:35:30.110Z,17.32
2018-03-11T11:36:30.117Z,17.10
2018-03-11T11:37:30.139Z,17.28
2018-03-11T11:38:30.129Z,17.35
2018-03-11T11:39:30.142Z,17.44
2018-03-11T11:40:30.143Z,17.38
2018-03-11T11:41:30.151Z,17.43
2018-03-11T11:42:30.154Z,17.48
2018-03-11T11:43:30.160Z,17.53
2018-03-11T11:44:30.164Z,17.63
2018-03-11T11:45:30.171Z,17.70
2018-03-11T11:46:30.177Z,17.85
2018-03-11T11:47:30.181Z,17.92
2018-03-11T11:48:30.200Z,17.85
2018-03-11T11:49:30.194Z,17.84
2018-03-11T11:50:30.215Z,17.81
2018-03-11T11:51:30.204Z,17.57
2018-03-11T11:52:30.209Z,17.15
2018-03-11T11:53:30.216Z,17.06
2018-03-11T11:54:30.228Z,16.99
2018-03-11T11:55:30.232Z,16.89
2018-03-11T11:56:30.235Z,16.90
2018-03-11T11:57:30.240Z,16.93
2018-03-11T11:58:30.256Z,17.00
2018-03-11T11:59:30.252Z,17.08
2018-03-11T12:00:30.258Z,17.18
2018-03-11T12:01:30.268Z,17.23
2018-03-11T12:02:30.266Z,17.43
2018-03-11T12:03:30.271Z,17.44
2018-03-11T12:04:30.281Z,17.63
2018-03-11T12:05:30.283Z,17.64
2018-03-11T12:06:30.289Z,17.73
2018-03-11T12:07:30.294Z,17.79
2018-03-11T12:08:30.298Z,17.82
2018-03-11T12:09:30.305Z,17.89
2018-03-11T12:10:30.311Z,17.78
2018-03-11T12:11:30.316Z,17.85
2018-03-11T12:12:30.322Z,17.81
2018-03-11T12:13:30.326Z,17.89
2018-03-11T12:14:30.336Z,17.87
2018-03-11T12:15:30.339Z,17.74
2018-03-11T12:16:30.343Z,17.79
2018-03-11T12:17:30.349Z,17.79
2018-03-11T12:18:30.355Z,17.64
2018-03-11T12:19:30.364Z,17.55
2018-03-11T12:20:30.372Z,17.48
2018-03-11T12:21:30.372Z,17.35
2018-03-11T12:22:30.381Z,17.40
2018-03-11T12:23:30.384Z,17.35
2018-03-11T12:24:30.389Z,17.36
2018-03-11T12:25:30.399Z,17.33
2018-03-11T12:26:30.400Z,17.36
2018-03-11T12:27:30.406Z,17.38
2018-03-11T12:28:30.412Z,17.20
2018-03-11T12:29:30.429Z,17.23
2018-03-11T12:30:30.424Z,17.20
2018-03-11T12:31:30.436Z,17.28
2018-03-11T12:32:30.438Z,17.26
2018-03-11T12:33:30.500Z,17.38
2018-03-11T12:34:30.566Z,17.36
2018-03-11T12:35:30.451Z,17.41
2018-03-11T12:36:30.454Z,17.46
2018-03-11T12:37:30.476Z,17.59
2018-03-11T12:38:30.465Z,17.54
2018-03-11T12:39:30.473Z,17.67
2018-03-11T12:40:30.479Z,17.81
2018-03-11T12:41:30.483Z,17.79
2018-03-11T12:42:30.607Z,17.85
2018-03-11T12:43:30.530Z,17.87
2018-03-11T12:44:31.009Z,18.00
2018-03-11T12:45:30.507Z,18.17
2018-03-11T12:46:30.508Z,18.31
2018-03-11T12:47:30.576Z,18.29
2018-03-11T12:48:30.519Z,18.31
2018-03-11T12:49:30.528Z,18.27
2018-03-11T12:50:30.535Z,18.25
2018-03-11T12:51:30.534Z,18.34
2018-03-11T12:52:30.541Z,18.31
2018-03-11T12:53:30.546Z,18.36
2018-03-11T12:54:30.559Z,18.34
2018-03-11T12:55:30.559Z,18.39
2018-03-11T12:56:30.564Z,18.17
2018-03-11T12:57:30.569Z,17.99
2018-03-11T12:58:30.777Z,17.94
2018-03-11T12:59:30.580Z,17.94
2018-03-11T13:00:30.589Z,17.97
2018-03-11T13:01:30.591Z,17.95
2018-03-11T13:02:30.603Z,17.91
2018-03-11T13:03:30.603Z,17.94
2018-03-11T13:04:30.623Z,17.88
2018-03-11T13:05:30.612Z,17.94